Terminal Aerodrome Forecast
Issued by NWS

Home | Current Version | Previous Version | Text Only | Print | Product List | Glossary On
Versions: 1 2 3 4 5 6 7 8 9 10 11 12 13 14 15 16 17 18 19
000
FTUS41 KALY 012203 AAF
TAFPSF
TAF AMD
KPSF 012203Z 0122/0218 10005KT P6SM VCSH SCT015 OVC030
      TEMPO 0122/0201 5SM -DZ BR SCT008 OVC015
     FM020100 11005KT 4SM -DZ BR BKN007 OVC020
     FM020700 09006KT 6SM BR OVC020
     FM021500 14007KT 3SM -RA BKN007 OVC015=

USA.gov is the U.S. government's official web portal to all federal, state and local government web resources and services.